Time;durP1;ratioP1;P1;durP2;ratioP2;P2;SDS_P1;SDS_P2;PMS_P1;PMS_P2;Temp;Humidity;BMP_temperature;BMP_pressure;BME280_temperature;BME280_humidity;BME280_pressure;Samples;Min_cycle;Max_cycle;Signal;HPM_P1;HPM_P2
2021/01/10 00:00:11;;;;;;;14.15;8.75;;;1.20;99.90;;;;;;5028471;28;20281;-82
2021/01/10 00:02:38;;;;;;;13.10;8.80;;;1.30;99.90;;;;;;5013659;28;20687;-82
2021/01/10 00:05:06;;;;;;;14.38;8.05;;;1.30;99.90;;;;;;5014161;28;20208;-84
2021/01/10 00:07:33;;;;;;;18.63;9.20;;;1.20;99.90;;;;;;5014679;28;20686;-82
2021/01/10 00:10:01;;;;;;;14.88;8.65;;;1.20;99.90;;;;;;5015164;28;20196;-81
2021/01/10 00:12:28;;;;;;;17.73;8.00;;;1.40;99.90;;;;;;5015645;28;20254;-84
2021/01/10 00:14:55;;;;;;;13.38;8.20;;;1.40;99.90;;;;;;5015866;28;20203;-80
2021/01/10 00:17:22;;;;;;;14.27;8.20;;;1.30;99.90;;;;;;5024180;28;20315;-83
2021/01/10 00:19:49;;;;;;;15.77;8.18;;;1.30;99.90;;;;;;5023750;28;20247;-82
2021/01/10 00:22:18;;;;;;;13.48;7.97;;;1.10;99.90;;;;;;5031852;28;20211;-84
2021/01/10 00:24:45;;;;;;;14.32;8.25;;;1.20;99.90;;;;;;5034267;28;20214;-82
2021/01/10 00:27:15;;;;;;;12.52;8.52;;;1.20;99.90;;;;;;5018420;28;20236;-83
2021/01/10 00:29:44;;;;;;;13.18;7.97;;;1.20;99.90;;;;;;5021160;28;20646;-84
2021/01/10 00:32:11;;;;;;;14.13;8.20;;;0.90;99.90;;;;;;5034139;28;20207;-84
2021/01/10 00:34:37;;;;;;;21.15;10.60;;;1.00;99.90;;;;;;5031848;28;20218;-83
2021/01/10 00:37:09;;;;;;;20.45;12.90;;;1.10;99.90;;;;;;5027755;28;20228;-84
2021/01/10 00:39:35;;;;;;;18.90;11.07;;;1.10;99.90;;;;;;5014418;28;20291;-83
2021/01/10 00:42:05;;;;;;;26.50;13.95;;;1.10;99.90;;;;;;5019075;28;20215;-84
2021/01/10 00:44:33;;;;;;;27.20;14.25;;;1.00;99.90;;;;;;5022386;28;20211;-81
2021/01/10 00:46:59;;;;;;;30.65;15.18;;;0.90;99.90;;;;;;5034786;28;20230;-82
2021/01/10 00:49:26;;;;;;;24.88;14.23;;;0.80;99.90;;;;;;5027055;28;20268;-83
2021/01/10 00:51:53;;;;;;;21.85;12.65;;;0.90;99.90;;;;;;5035035;28;20653;-84
2021/01/10 00:54:20;;;;;;;23.92;13.57;;;0.90;99.90;;;;;;5018722;28;20606;-81
2021/01/10 00:56:47;;;;;;;27.23;15.45;;;0.90;99.90;;;;;;5015444;28;20305;-84
2021/01/10 00:59:14;;;;;;;33.75;11.35;;;0.80;99.90;;;;;;5016262;28;20347;-81
2021/01/10 01:01:42;;;;;;;25.88;13.90;;;0.60;99.90;;;;;;5018359;28;20295;-84
2021/01/10 01:04:08;;;;;;;24.58;13.27;;;0.80;99.90;;;;;;5015215;28;20211;-82
2021/01/10 01:06:35;;;;;;;21.52;12.23;;;0.60;99.90;;;;;;5014166;28;20276;-83
2021/01/10 01:09:01;;;;;;;26.92;14.90;;;0.70;99.90;;;;;;5021386;28;21617;-83
2021/01/10 01:11:29;;;;;;;18.50;11.68;;;0.70;99.90;;;;;;5057779;28;20202;-80
2021/01/10 01:13:56;;;;;;;24.15;13.38;;;0.80;99.90;;;;;;5046292;28;20203;-84
2021/01/10 01:16:23;;;;;;;17.85;9.57;;;0.60;99.90;;;;;;5038962;28;20688;-82
2021/01/10 01:18:50;;;;;;;22.77;13.25;;;0.70;99.90;;;;;;5063171;28;20206;-81
2021/01/10 01:21:18;;;;;;;23.88;13.10;;;0.60;99.90;;;;;;5057971;28;20215;-83
2021/01/10 01:23:45;;;;;;;27.88;15.02;;;0.70;99.90;;;;;;5047123;28;20211;-81
2021/01/10 01:26:15;;;;;;;26.17;14.98;;;0.80;99.90;;;;;;5059226;28;20265;-83
2021/01/10 01:28:43;;;;;;;25.45;14.35;;;0.50;99.90;;;;;;5049240;28;20199;-82
2021/01/10 01:31:11;;;;;;;26.52;14.73;;;0.60;99.90;;;;;;5034749;28;20691;-80
2021/01/10 01:33:38;;;;;;;23.17;12.02;;;0.90;99.90;;;;;;5041446;28;20298;-81
2021/01/10 01:36:11;;;;;;;26.40;14.13;;;0.80;99.90;;;;;;5032130;28;20232;-81
2021/01/10 01:38:39;;;;;;;25.83;13.57;;;0.60;99.90;;;;;;5016884;28;20200;-82
2021/01/10 01:41:06;;;;;;;19.45;10.70;;;0.90;99.90;;;;;;5017831;28;20278;-82
2021/01/10 01:43:34;;;;;;;25.10;15.60;;;0.80;99.90;;;;;;5029642;28;20215;-82
2021/01/10 01:46:01;;;;;;;20.67;12.55;;;0.50;99.90;;;;;;5036030;28;20219;-81
2021/01/10 01:48:28;;;;;;;24.38;13.00;;;0.60;99.90;;;;;;5036113;28;20253;-82
2021/01/10 01:50:57;;;;;;;23.40;12.70;;;0.90;99.90;;;;;;5033732;28;20208;-83
2021/01/10 01:53:25;;;;;;;21.98;12.63;;;1.00;99.90;;;;;;5017799;28;20265;-83
2021/01/10 01:55:53;;;;;;;22.80;12.40;;;0.80;99.90;;;;;;5020280;28;20234;-83
2021/01/10 01:58:20;;;;;;;24.17;12.35;;;0.60;99.90;;;;;;5039055;28;20208;-82
2021/01/10 02:00:47;;;;;;;20.90;13.70;;;0.90;99.90;;;;;;5045825;28;20227;-82
2021/01/10 02:03:18;;;;;;;21.20;12.93;;;0.70;99.90;;;;;;5035399;28;20208;-79
2021/01/10 02:05:46;;;;;;;19.70;12.30;;;0.50;99.90;;;;;;5055516;28;20217;-79
2021/01/10 02:08:13;;;;;;;22.67;14.10;;;0.40;99.90;;;;;;5046353;28;20242;-80
2021/01/10 02:10:42;;;;;;;25.58;15.18;;;0.40;99.90;;;;;;5035678;28;20196;-79
2021/01/10 02:13:15;;;;;;;23.48;14.27;;;0.50;99.90;;;;;;5043687;28;20187;-81
2021/01/10 02:15:45;;;;;;;25.05;14.60;;;0.60;99.90;;;;;;5054064;28;20200;-79
2021/01/10 02:18:14;;;;;;;22.75;14.70;;;0.60;99.90;;;;;;5060331;28;20191;-78
2021/01/10 02:20:41;;;;;;;24.88;15.27;;;0.60;99.90;;;;;;5053958;28;20650;-84
2021/01/10 02:23:11;;;;;;;21.85;12.73;;;0.50;99.90;;;;;;5048515;28;20207;-82
2021/01/10 02:25:43;;;;;;;17.15;10.10;;;0.90;99.90;;;;;;5034693;28;20570;-83
2021/01/10 02:28:10;;;;;;;19.38;11.25;;;0.60;99.90;;;;;;5027739;28;20208;-83
2021/01/10 02:30:39;;;;;;;23.00;12.35;;;0.50;99.90;;;;;;5015382;28;20200;-83
2021/01/10 02:33:10;;;;;;;17.25;10.55;;;0.90;99.90;;;;;;5024989;28;20647;-83
2021/01/10 02:35:37;;;;;;;20.83;12.40;;;1.10;99.90;;;;;;5044237;28;20211;-79
2021/01/10 02:38:39;;;;;;;17.80;10.82;;;0.80;99.90;;;;;;5039961;28;20230;-79
2021/01/10 02:41:17;;;;;;;18.25;10.50;;;1.00;99.90;;;;;;5031680;28;20230;-82
2021/01/10 02:43:55;;;;;;;19.75;11.13;;;0.70;99.90;;;;;;5028803;28;20279;-83
2021/01/10 02:46:24;;;;;;;18.55;11.55;;;0.70;99.90;;;;;;5020742;28;20290;-82
2021/01/10 02:48:50;;;;;;;20.20;12.32;;;0.70;99.90;;;;;;5032576;28;20222;-83
2021/01/10 02:51:17;;;;;;;17.70;11.40;;;0.70;99.90;;;;;;5034939;28;20207;-83
2021/01/10 02:53:43;;;;;;;19.92;11.40;;;0.50;99.90;;;;;;5027036;28;20204;-83
2021/01/10 02:56:11;;;;;;;19.40;11.57;;;0.60;99.90;;;;;;5031344;28;20281;-84
2021/01/10 02:58:40;;;;;;;20.25;11.95;;;0.50;99.90;;;;;;5031475;28;20211;-81
2021/01/10 03:01:11;;;;;;;20.40;11.88;;;0.50;99.90;;;;;;5031235;28;20262;-81
2021/01/10 03:03:39;;;;;;;19.25;11.75;;;0.60;99.90;;;;;;5033254;28;20266;-80
2021/01/10 03:06:06;;;;;;;20.70;11.85;;;0.50;99.90;;;;;;5032897;28;20274;-81
2021/01/10 03:08:34;;;;;;;18.98;11.77;;;0.50;99.90;;;;;;5016690;28;20222;-80
2021/01/10 03:11:00;;;;;;;17.15;10.90;;;0.70;99.90;;;;;;5019953;28;20243;-81
2021/01/10 03:13:28;;;;;;;19.92;10.73;;;0.40;99.90;;;;;;5021130;28;20230;-83
2021/01/10 03:15:55;;;;;;;16.33;10.43;;;0.30;99.90;;;;;;5027766;28;20687;-80
2021/01/10 03:18:23;;;;;;;18.83;10.50;;;0.30;99.90;;;;;;5055724;28;20217;-82
2021/01/10 03:20:50;;;;;;;17.88;9.50;;;0.30;99.90;;;;;;5049767;28;20268;-84
2021/01/10 03:23:17;;;;;;;15.35;9.50;;;0.30;99.90;;;;;;5035298;28;20203;-82
2021/01/10 03:25:44;;;;;;;14.38;8.88;;;0.30;99.90;;;;;;5038721;28;20200;-84
2021/01/10 03:28:10;;;;;;;15.20;9.52;;;0.40;99.90;;;;;;5048809;28;20218;-83
2021/01/10 03:30:38;;;;;;;16.20;9.30;;;0.40;99.90;;;;;;5034915;28;20199;-83
2021/01/10 03:33:05;;;;;;;14.52;8.52;;;0.50;99.90;;;;;;5035358;28;20203;-84
2021/01/10 03:35:34;;;;;;;15.70;9.07;;;0.40;99.90;;;;;;5032468;28;20219;-84
2021/01/10 03:38:02;;;;;;;16.63;9.75;;;0.30;99.90;;;;;;5035192;28;20223;-84
2021/01/10 03:40:29;;;;;;;15.98;9.75;;;0.40;99.90;;;;;;5027288;28;20266;-84
2021/01/10 03:42:56;;;;;;;17.77;9.50;;;0.20;99.90;;;;;;5018611;28;20268;-82
2021/01/10 03:45:22;;;;;;;17.25;9.93;;;0.10;99.90;;;;;;5025365;28;20207;-80
2021/01/10 03:47:50;;;;;;;16.73;10.15;;;0.00;99.90;;;;;;5038418;28;20223;-79
2021/01/10 03:50:17;;;;;;;18.73;9.20;;;0.20;99.90;;;;;;5030254;28;20200;-80
2021/01/10 03:52:44;;;;;;;17.77;9.75;;;0.30;99.90;;;;;;5036933;28;20211;-79
2021/01/10 03:55:11;;;;;;;17.55;10.18;;;0.40;99.90;;;;;;5032910;28;20204;-80
2021/01/10 03:57:39;;;;;;;16.30;9.10;;;0.10;99.90;;;;;;5024780;28;20626;-84
2021/01/10 04:00:08;;;;;;;14.52;8.98;;;0.20;99.90;;;;;;5029356;28;20613;-84
2021/01/10 04:02:34;;;;;;;15.52;9.70;;;0.20;99.90;;;;;;5035712;28;20362;-80
2021/01/10 04:05:02;;;;;;;18.63;10.98;;;0.30;99.90;;;;;;5019887;28;20200;-82
2021/01/10 04:07:28;;;;;;;17.42;10.68;;;0.30;99.90;;;;;;5020918;28;20227;-83
2021/01/10 04:09:55;;;;;;;19.83;11.35;;;0.40;99.90;;;;;;5035663;28;20199;-84
2021/01/10 04:12:22;;;;;;;16.85;10.45;;;0.30;99.90;;;;;;5031228;28;20270;-83
2021/01/10 04:14:48;;;;;;;17.55;10.73;;;0.30;99.90;;;;;;5016134;28;20218;-84
2021/01/10 04:17:14;;;;;;;20.38;12.18;;;0.40;99.90;;;;;;5043464;28;20222;-82
2021/01/10 04:19:41;;;;;;;18.92;12.00;;;0.40;99.90;;;;;;5032396;28;20208;-83
2021/01/10 04:22:08;;;;;;;19.85;11.90;;;0.50;99.90;;;;;;5036044;28;20203;-83
2021/01/10 04:24:35;;;;;;;18.83;11.40;;;0.60;99.90;;;;;;5024534;28;20692;-83
2021/01/10 04:27:02;;;;;;;19.25;11.18;;;0.70;99.90;;;;;;5016212;28;20246;-83
2021/01/10 04:29:28;;;;;;;19.67;12.02;;;0.60;99.90;;;;;;5025872;28;20283;-82
2021/01/10 04:31:56;;;;;;;18.52;11.90;;;0.60;99.90;;;;;;5034557;28;20211;-84
2021/01/10 04:34:22;;;;;;;20.77;12.98;;;0.70;99.90;;;;;;5024882;28;20705;-84
2021/01/10 04:36:49;;;;;;;19.77;12.13;;;0.70;99.90;;;;;;5037354;28;20234;-82
2021/01/10 04:39:16;;;;;;;16.80;11.35;;;0.70;99.90;;;;;;5027549;28;20215;-82
2021/01/10 04:41:44;;;;;;;17.23;10.32;;;0.70;99.90;;;;;;5023588;28;20646;-84
2021/01/10 04:44:12;;;;;;;19.02;11.27;;;1.00;99.90;;;;;;5029611;28;20200;-84
2021/01/10 04:46:40;;;;;;;20.40;10.95;;;1.10;99.90;;;;;;5025685;28;20280;-81
2021/01/10 04:49:07;;;;;;;19.88;10.45;;;0.60;99.90;;;;;;5045670;28;20203;-82
2021/01/10 04:51:36;;;;;;;17.63;10.77;;;0.60;99.90;;;;;;5034248;28;20248;-80
2021/01/10 04:54:04;;;;;;;20.17;11.55;;;0.40;99.90;;;;;;5051964;28;20203;-83
2021/01/10 04:56:31;;;;;;;17.48;10.15;;;0.60;99.90;;;;;;5049517;28;20226;-82
2021/01/10 04:59:03;;;;;;;17.10;11.55;;;0.50;99.90;;;;;;5032375;28;20214;-81
2021/01/10 05:01:34;;;;;;;19.75;10.23;;;0.30;99.90;;;;;;5024379;28;20251;-84
2021/01/10 05:04:01;;;;;;;15.77;8.77;;;0.50;99.90;;;;;;5037292;28;20207;-84
2021/01/10 05:06:32;;;;;;;17.90;10.70;;;0.50;99.90;;;;;;5042926;28;20298;-84
2021/01/10 05:09:00;;;;;;;16.60;9.75;;;0.60;99.90;;;;;;5027510;28;20580;-84
2021/01/10 05:11:27;;;;;;;18.92;11.35;;;0.60;99.90;;;;;;5034581;28;20275;-83
2021/01/10 05:13:55;;;;;;;15.05;10.23;;;0.20;99.90;;;;;;5029883;28;20231;-82
2021/01/10 05:16:22;;;;;;;18.02;9.93;;;0.30;99.90;;;;;;5030281;28;20223;-84
2021/01/10 05:18:53;;;;;;;19.20;10.02;;;0.30;99.90;;;;;;5061329;28;20214;-83
2021/01/10 05:21:21;;;;;;;18.35;9.25;;;0.40;99.90;;;;;;5046686;28;20281;-83
2021/01/10 05:23:51;;;;;;;18.73;10.75;;;0.50;99.90;;;;;;5042462;28;20564;-83
2021/01/10 05:26:19;;;;;;;7.38;4.57;;;0.60;99.90;;;;;;5034567;28;20238;-83
2021/01/10 05:28:45;;;;;;;15.30;8.43;;;0.60;99.90;;;;;;5022542;28;20243;-84
2021/01/10 05:31:13;;;;;;;12.40;7.30;;;0.50;99.90;;;;;;5038802;28;20207;-83
2021/01/10 05:33:50;;;;;;;17.50;10.35;;;0.50;99.90;;;;;;5041618;28;20203;-82
2021/01/10 05:36:31;;;;;;;16.15;9.15;;;0.60;99.90;;;;;;5043635;28;20256;-82
2021/01/10 05:38:58;;;;;;;15.95;9.27;;;0.60;99.90;;;;;;5041713;28;20196;-81
2021/01/10 05:41:26;;;;;;;15.45;9.32;;;0.50;99.90;;;;;;5032850;28;20265;-81
2021/01/10 05:44:03;;;;;;;16.92;10.27;;;0.40;99.90;;;;;;5038263;28;20206;-82
2021/01/10 05:46:32;;;;;;;17.95;11.50;;;0.50;99.90;;;;;;5040319;28;20378;-82
2021/01/10 05:49:00;;;;;;;15.88;9.20;;;0.50;99.90;;;;;;5044751;28;20290;-83
2021/01/10 05:51:29;;;;;;;18.45;9.68;;;0.50;99.90;;;;;;5056736;28;20289;-83
2021/01/10 05:53:55;;;;;;;19.45;10.00;;;0.40;99.90;;;;;;5047438;28;20614;-82
2021/01/10 05:56:22;;;;;;;18.35;9.23;;;0.50;99.90;;;;;;5031959;28;20228;-83
2021/01/10 05:58:56;;;;;;;19.02;11.48;;;0.40;99.90;;;;;;5018575;28;20875;-83
2021/01/10 06:01:24;;;;;;;20.00;10.88;;;0.60;99.90;;;;;;5023189;28;20310;-82
2021/01/10 06:03:52;;;;;;;18.70;10.45;;;0.60;99.90;;;;;;5021723;28;20894;-83
2021/01/10 06:06:19;;;;;;;16.02;10.32;;;0.80;99.90;;;;;;5038673;28;20223;-83
2021/01/10 06:08:46;;;;;;;17.85;10.25;;;0.60;99.90;;;;;;5037294;28;20203;-81
2021/01/10 06:11:23;;;;;;;17.27;10.80;;;0.50;99.90;;;;;;5037363;28;20299;-84
2021/01/10 06:13:52;;;;;;;16.35;9.68;;;1.00;99.90;;;;;;5018928;28;20215;-82
2021/01/10 06:16:20;;;;;;;17.70;10.80;;;0.60;99.90;;;;;;5037236;28;20261;-81
2021/01/10 06:18:49;;;;;;;15.15;10.15;;;0.80;99.90;;;;;;5068529;28;20202;-83
2021/01/10 06:21:21;;;;;;;15.90;9.85;;;0.80;99.90;;;;;;5048996;28;20233;-79
2021/01/10 06:23:51;;;;;;;17.10;10.20;;;0.70;99.90;;;;;;5052410;28;20195;-82
2021/01/10 06:26:19;;;;;;;15.82;10.13;;;0.80;99.90;;;;;;5036855;28;20237;-84
2021/01/10 06:28:54;;;;;;;19.40;11.68;;;0.70;99.90;;;;;;5018371;28;20218;-82
2021/01/10 06:31:26;;;;;;;17.00;9.93;;;1.00;99.90;;;;;;5032033;28;20214;-82
2021/01/10 06:33:58;;;;;;;16.60;9.88;;;0.90;99.90;;;;;;5037538;28;20216;-83
2021/01/10 06:36:31;;;;;;;17.23;10.82;;;0.80;99.90;;;;;;5025965;28;20282;-80
2021/01/10 06:39:06;;;;;;;16.02;9.32;;;0.80;99.90;;;;;;5038627;28;20209;-84
2021/01/10 06:42:06;;;;;;;17.50;9.90;;;0.90;99.90;;;;;;5036675;28;20219;-81
2021/01/10 06:44:38;;;;;;;18.55;9.60;;;0.70;99.90;;;;;;5033123;28;20211;-82
2021/01/10 06:47:05;;;;;;;18.55;9.15;;;0.70;99.90;;;;;;5027443;28;20238;-84
2021/01/10 06:49:32;;;;;;;17.08;10.07;;;0.80;99.90;;;;;;5018752;28;20602;-84
2021/01/10 06:52:03;;;;;;;16.45;9.88;;;0.70;99.90;;;;;;5017039;28;20211;-82
2021/01/10 06:54:30;;;;;;;20.00;11.65;;;0.60;99.90;;;;;;5028821;28;20196;-82
2021/01/10 06:56:56;;;;;;;16.00;9.88;;;0.40;99.90;;;;;;5028616;28;20772;-84
2021/01/10 06:59:25;;;;;;;9.27;5.30;;;0.40;99.90;;;;;;5017072;28;20212;-81
2021/01/10 07:02:02;;;;;;;19.08;11.15;;;0.70;99.90;;;;;;5036871;28;20700;-82
2021/01/10 07:05:00;;;;;;;18.02;9.30;;;0.80;99.90;;;;;;5045911;28;20253;-80
2021/01/10 07:07:41;;;;;;;6.40;3.50;;;0.60;99.90;;;;;;5040613;28;20215;-83
2021/01/10 07:10:13;;;;;;;15.70;9.63;;;0.70;99.90;;;;;;5035952;28;20426;-82
2021/01/10 07:12:40;;;;;;;17.30;9.73;;;0.60;99.90;;;;;;5040035;28;20688;-82
2021/01/10 07:15:26;;;;;;;14.85;10.85;;;0.80;99.90;;;;;;5037277;28;20790;-82
2021/01/10 07:18:06;;;;;;;14.30;8.60;;;0.60;99.90;;;;;;5046146;28;20671;-82
2021/01/10 07:20:34;;;;;;;14.57;8.50;;;0.40;99.90;;;;;;5045977;28;20218;-82
2021/01/10 07:23:27;;;;;;;13.95;7.82;;;0.50;99.90;;;;;;5055106;28;20233;-82
2021/01/10 07:25:54;;;;;;;19.73;10.55;;;0.70;99.90;;;;;;5055993;28;20207;-80
2021/01/10 07:28:39;;;;;;;19.23;10.52;;;0.60;99.90;;;;;;5055903;28;20301;-82
2021/01/10 07:31:18;;;;;;;20.23;11.15;;;0.40;99.90;;;;;;5055488;28;20368;-82
2021/01/10 07:33:46;;;;;;;18.58;9.40;;;0.60;99.90;;;;;;5049932;28;20218;-82
2021/01/10 07:36:13;;;;;;;16.88;10.68;;;0.60;99.90;;;;;;5034654;28;20322;-84
2021/01/10 07:38:42;;;;;;;16.33;9.85;;;0.80;99.90;;;;;;5024005;28;20287;-80
2021/01/10 07:41:27;;;;;;;17.10;9.95;;;0.70;99.90;;;;;;5019854;28;20226;-82
2021/01/10 07:43:56;;;;;;;17.33;10.80;;;0.80;99.90;;;;;;5036570;28;20626;-83
2021/01/10 07:46:59;;;;;;;17.67;9.80;;;0.80;99.90;;;;;;5033965;28;20715;-82
2021/01/10 07:49:28;;;;;;;14.52;7.22;;;0.80;99.90;;;;;;5036496;28;20207;-84
2021/01/10 07:51:55;;;;;;;18.90;10.60;;;0.60;99.90;;;;;;5033059;28;20207;-81
2021/01/10 07:54:52;;;;;;;15.05;8.05;;;0.80;99.90;;;;;;5031347;28;20582;-81
2021/01/10 07:57:33;;;;;;;15.85;9.20;;;0.50;99.90;;;;;;5031016;28;20223;-81
2021/01/10 08:00:14;;;;;;;15.85;9.75;;;0.70;99.90;;;;;;5029492;28;20214;-85
2021/01/10 08:02:58;;;;;;;16.95;10.52;;;0.50;99.90;;;;;;5013454;28;20215;-78
2021/01/10 08:05:27;;;;;;;19.05;10.57;;;0.40;99.90;;;;;;5012557;28;20807;-83
2021/01/10 08:07:59;;;;;;;15.82;8.45;;;0.40;99.90;;;;;;5013990;28;20270;-82
2021/01/10 08:10:29;;;;;;;19.65;10.75;;;0.50;99.90;;;;;;5027308;28;20195;-83
2021/01/10 08:12:55;;;;;;;17.00;10.23;;;0.70;99.90;;;;;;5029944;28;20207;-83
2021/01/10 08:15:22;;;;;;;16.77;9.32;;;0.60;99.90;;;;;;5035424;28;20207;-82
2021/01/10 08:17:48;;;;;;;21.10;11.00;;;0.70;99.90;;;;;;5037160;28;20242;-83
2021/01/10 08:20:15;;;;;;;18.63;10.85;;;0.90;99.90;;;;;;5056256;28;20217;-81
2021/01/10 08:22:42;;;;;;;19.80;11.25;;;1.00;99.90;;;;;;5016675;28;20204;-81
2021/01/10 08:25:20;;;;;;;16.80;10.95;;;1.20;99.90;;;;;;5015928;28;20204;-82
2021/01/10 08:27:48;;;;;;;15.00;9.63;;;1.00;99.90;;;;;;5035182;28;20623;-81
2021/01/10 08:30:16;;;;;;;16.65;9.68;;;0.90;99.90;;;;;;5036951;28;20274;-81
2021/01/10 08:32:43;;;;;;;18.02;10.02;;;1.00;99.90;;;;;;5015179;28;20662;-80
2021/01/10 08:35:10;;;;;;;20.13;10.68;;;1.10;99.90;;;;;;5015848;28;20278;-83
2021/01/10 08:37:38;;;;;;;16.83;9.98;;;1.10;99.90;;;;;;5016599;28;20299;-81
2021/01/10 08:40:09;;;;;;;17.00;9.80;;;0.80;99.90;;;;;;5031792;28;20203;-83
2021/01/10 08:42:36;;;;;;;15.10;10.10;;;0.90;99.90;;;;;;5036170;28;20261;-82
2021/01/10 08:45:21;;;;;;;16.50;10.02;;;1.20;99.90;;;;;;5035815;28;20211;-82
2021/01/10 08:47:48;;;;;;;16.42;10.38;;;1.30;99.90;;;;;;5024472;28;20278;-82
2021/01/10 08:50:16;;;;;;;15.70;8.95;;;1.30;99.90;;;;;;5021248;28;20207;-83
2021/01/10 08:52:56;;;;;;;18.30;10.35;;;1.30;99.90;;;;;;5020735;28;20212;-81
2021/01/10 08:55:33;;;;;;;18.10;10.55;;;1.30;99.90;;;;;;5021973;28;20227;-82
2021/01/10 08:58:01;;;;;;;21.13;10.75;;;1.10;99.90;;;;;;5015516;28;20283;-84
2021/01/10 09:00:31;;;;;;;21.25;11.30;;;1.00;99.90;;;;;;5014556;28;20277;-82
2021/01/10 09:03:12;;;;;;;14.30;8.50;;;1.20;99.90;;;;;;5015865;28;20222;-83
2021/01/10 09:05:39;;;;;;;15.75;10.35;;;1.20;99.90;;;;;;5031441;28;20565;-85
2021/01/10 09:08:10;;;;;;;18.58;11.20;;;1.20;99.90;;;;;;5024975;28;20628;-86
2021/01/10 09:10:46;;;;;;;19.25;11.65;;;1.20;99.90;;;;;;5032890;28;20195;-86
2021/01/10 09:13:16;;;;;;;23.83;11.70;;;1.20;99.90;;;;;;5036381;28;20215;-85
2021/01/10 09:15:45;;;;;;;17.52;9.80;;;1.20;99.90;;;;;;5011790;28;20745;-85
2021/01/10 09:18:19;;;;;;;15.43;10.63;;;1.40;99.90;;;;;;5018842;28;20572;-85
2021/01/10 09:20:52;;;;;;;17.20;8.80;;;1.30;99.90;;;;;;5039845;28;20305;-86
2021/01/10 09:23:20;;;;;;;16.30;9.70;;;1.60;99.90;;;;;;5040203;28;20672;-85
2021/01/10 09:25:46;;;;;;;10.70;6.22;;;1.20;99.90;;;;;;5010654;28;20679;-86
2021/01/10 09:28:16;;;;;;;14.75;8.77;;;1.10;99.90;;;;;;5016052;28;20207;-84
2021/01/10 09:30:45;;;;;;;11.75;6.25;;;1.20;99.90;;;;;;5040576;28;20217;-85
2021/01/10 09:33:12;;;;;;;17.20;10.27;;;1.10;99.90;;;;;;5049941;28;20210;-85
2021/01/10 09:35:43;;;;;;;15.98;8.90;;;1.00;99.90;;;;;;5052232;28;20206;-85
2021/01/10 09:38:11;;;;;;;19.50;10.30;;;1.20;99.90;;;;;;5034823;28;20241;-85
2021/01/10 09:40:38;;;;;;;15.23;9.15;;;1.10;99.90;;;;;;5025732;28;20235;-84
2021/01/10 09:43:04;;;;;;;18.92;10.13;;;1.20;99.90;;;;;;5019656;28;20278;-86
2021/01/10 09:45:36;;;;;;;16.85;9.30;;;1.40;99.90;;;;;;5022288;28;20190;-85
2021/01/10 09:48:05;;;;;;;18.10;10.65;;;1.30;99.90;;;;;;5025635;28;20223;-85
2021/01/10 09:50:32;;;;;;;16.00;8.43;;;1.50;99.90;;;;;;5023725;28;20208;-86
2021/01/10 09:53:02;;;;;;;15.07;7.45;;;1.70;99.90;;;;;;5020480;28;20571;-86
2021/01/10 09:55:45;;;;;;;12.52;8.80;;;1.50;99.90;;;;;;5020738;28;20597;-85
2021/01/10 09:58:15;;;;;;;20.67;11.40;;;1.40;99.90;;;;;;5028866;28;20209;-84
2021/01/10 10:00:56;;;;;;;17.65;10.43;;;1.20;99.90;;;;;;5033237;28;20267;-84
2021/01/10 10:03:24;;;;;;;19.20;8.65;;;1.40;99.90;;;;;;5035908;28;21169;-84
2021/01/10 10:05:57;;;;;;;16.30;10.30;;;1.30;99.90;;;;;;5042310;28;20269;-84
2021/01/10 10:08:23;;;;;;;17.58;9.45;;;1.60;99.90;;;;;;5021206;28;20216;-84
2021/01/10 10:10:50;;;;;;;15.38;10.07;;;1.40;99.90;;;;;;5020433;28;20220;-84
2021/01/10 10:13:25;;;;;;;16.80;9.77;;;1.60;99.90;;;;;;5028471;28;20251;-84
2021/01/10 10:15:54;;;;;;;9.73;5.47;;;1.50;99.90;;;;;;5017840;28;20219;-85
2021/01/10 10:18:26;;;;;;;15.77;9.77;;;1.50;99.90;;;;;;5018209;28;20219;-85
2021/01/10 10:20:52;;;;;;;17.65;9.10;;;1.50;99.90;;;;;;5023839;28;20261;-85
2021/01/10 10:23:19;;;;;;;7.50;4.07;;;1.70;99.90;;;;;;5036754;28;20211;-84
2021/01/10 10:25:48;;;;;;;13.20;8.50;;;1.60;99.90;;;;;;5026760;28;20231;-85
2021/01/10 10:28:16;;;;;;;16.65;10.07;;;1.50;99.90;;;;;;5018522;28;20236;-84
2021/01/10 10:30:44;;;;;;;13.38;6.78;;;1.70;99.90;;;;;;5038032;28;20192;-83
2021/01/10 10:33:11;;;;;;;15.18;8.63;;;1.70;99.90;;;;;;5028258;28;20207;-85
2021/01/10 10:35:39;;;;;;;13.60;8.25;;;1.80;99.90;;;;;;5045165;28;20235;-85
2021/01/10 10:38:06;;;;;;;14.88;9.65;;;1.70;99.90;;;;;;5032059;28;20227;-83
2021/01/10 10:40:33;;;;;;;13.32;9.43;;;1.80;99.90;;;;;;5025840;28;20246;-84
2021/01/10 10:43:00;;;;;;;16.65;10.20;;;1.90;99.90;;;;;;5038181;28;20211;-86
2021/01/10 10:45:27;;;;;;;15.80;9.10;;;2.10;99.90;;;;;;5027708;28;20207;-82
2021/01/10 10:47:53;;;;;;;21.48;9.18;;;2.00;99.90;;;;;;5024344;28;20242;-82
2021/01/10 10:50:20;;;;;;;14.95;9.15;;;2.30;99.90;;;;;;5028208;28;20451;-83
2021/01/10 10:52:47;;;;;;;14.55;9.77;;;2.40;99.90;;;;;;5039017;28;20222;-81
2021/01/10 10:55:16;;;;;;;14.25;8.70;;;2.30;99.90;;;;;;5032780;28;20541;-81
2021/01/10 10:57:44;;;;;;;12.70;6.80;;;2.30;99.90;;;;;;5019306;28;20307;-85
2021/01/10 11:00:12;;;;;;;11.57;7.30;;;2.50;99.90;;;;;;5018493;28;20679;-85
2021/01/10 11:02:39;;;;;;;13.38;8.45;;;2.40;99.90;;;;;;5029634;28;20557;-85
2021/01/10 11:05:07;;;;;;;10.77;5.75;;;2.50;99.90;;;;;;5034867;28;20229;-86
2021/01/10 11:07:36;;;;;;;14.30;8.48;;;2.20;99.90;;;;;;5015575;28;20232;-85
2021/01/10 11:10:05;;;;;;;15.80;8.75;;;2.50;99.90;;;;;;5019531;28;20264;-88
2021/01/10 11:12:34;;;;;;;14.40;8.48;;;2.40;99.90;;;;;;5038899;28;20211;-81
2021/01/10 11:15:00;;;;;;;14.13;9.32;;;2.20;99.90;;;;;;5022271;28;20203;-80
2021/01/10 11:17:27;;;;;;;15.68;9.18;;;2.60;99.90;;;;;;5039073;28;20226;-84
2021/01/10 11:19:53;;;;;;;14.65;7.63;;;2.60;99.90;;;;;;5067904;28;20682;-84
2021/01/10 11:22:20;;;;;;;15.15;9.55;;;2.50;99.90;;;;;;5064692;28;20234;-82
2021/01/10 11:24:47;;;;;;;16.27;9.07;;;2.60;99.90;;;;;;5058987;28;20203;-80
2021/01/10 11:27:14;;;;;;;16.50;10.07;;;2.60;99.90;;;;;;5039188;28;20239;-83
2021/01/10 11:29:41;;;;;;;12.93;8.05;;;2.70;99.90;;;;;;5034341;28;20207;-78
2021/01/10 11:32:08;;;;;;;12.85;8.95;;;2.60;99.90;;;;;;5050681;28;20836;-80
2021/01/10 11:34:35;;;;;;;12.93;7.18;;;2.60;99.90;;;;;;5029392;28;20718;-81
2021/01/10 11:37:02;;;;;;;8.60;4.35;;;2.50;99.90;;;;;;5013008;28;20227;-85
2021/01/10 11:39:30;;;;;;;13.45;8.32;;;2.70;99.90;;;;;;5021491;28;20240;-83
2021/01/10 11:41:57;;;;;;;11.50;6.80;;;2.40;99.90;;;;;;5018615;28;20220;-81
2021/01/10 11:44:26;;;;;;;11.77;7.35;;;2.50;99.90;;;;;;5015652;28;20211;-80
2021/01/10 11:46:54;;;;;;;13.30;9.48;;;2.40;99.90;;;;;;5044726;28;20238;-78
2021/01/10 11:49:22;;;;;;;13.73;9.18;;;2.40;99.90;;;;;;5042506;28;20569;-78
2021/01/10 11:51:49;;;;;;;11.73;5.20;;;2.50;99.90;;;;;;5023885;28;20619;-78
2021/01/10 11:54:16;;;;;;;13.48;8.63;;;2.60;99.90;;;;;;5022184;28;20230;-79
2021/01/10 11:56:43;;;;;;;14.05;8.38;;;3.00;99.90;;;;;;5023333;28;20234;-83
2021/01/10 11:59:11;;;;;;;13.88;8.18;;;2.70;99.90;;;;;;5014767;28;20212;-78
2021/01/10 12:01:39;;;;;;;14.18;8.23;;;2.60;99.90;;;;;;5018510;28;20271;-80
2021/01/10 12:04:06;;;;;;;15.02;8.25;;;2.90;99.90;;;;;;5033758;28;20210;-83
2021/01/10 12:06:34;;;;;;;13.70;9.07;;;2.90;99.90;;;;;;5026056;28;20218;-81
2021/01/10 12:09:00;;;;;;;13.20;8.50;;;3.00;99.90;;;;;;5035725;28;20272;-78
2021/01/10 12:11:27;;;;;;;10.30;5.90;;;2.70;99.90;;;;;;5030543;28;20208;-79
2021/01/10 12:13:55;;;;;;;13.13;7.55;;;2.90;99.90;;;;;;5016955;28;20275;-81
2021/01/10 12:16:22;;;;;;;13.20;6.97;;;2.90;99.90;;;;;;5025555;28;20223;-84
2021/01/10 12:18:50;;;;;;;12.70;7.65;;;3.10;99.90;;;;;;5062946;28;20210;-83
2021/01/10 12:21:17;;;;;;;12.18;7.32;;;3.00;99.90;;;;;;5051811;28;20215;-80
2021/01/10 12:23:44;;;;;;;12.70;8.35;;;2.80;99.90;;;;;;5018750;28;20208;-78
2021/01/10 12:26:11;;;;;;;13.63;8.07;;;2.60;99.90;;;;;;5036092;28;20553;-83
2021/01/10 12:28:38;;;;;;;12.27;7.65;;;2.60;99.90;;;;;;5023392;28;20215;-85
2021/01/10 12:31:05;;;;;;;12.63;7.38;;;2.90;99.90;;;;;;5019708;28;20203;-79
2021/01/10 12:33:33;;;;;;;7.70;5.43;;;2.90;99.90;;;;;;5036231;28;20741;-80
2021/01/10 12:36:01;;;;;;;7.93;4.63;;;3.00;99.90;;;;;;5013570;28;20215;-78
2021/01/10 12:38:27;;;;;;;10.57;6.35;;;3.00;99.90;;;;;;5012899;28;20666;-75
2021/01/10 12:40:54;;;;;;;7.80;4.70;;;3.10;99.90;;;;;;5018877;28;20666;-75
2021/01/10 12:43:20;;;;;;;10.93;6.40;;;3.20;99.90;;;;;;5030057;28;20564;-75
2021/01/10 12:45:47;;;;;;;9.63;5.68;;;2.90;99.90;;;;;;5028973;28;20289;-76
2021/01/10 12:48:17;;;;;;;11.75;6.00;;;3.00;99.90;;;;;;5029344;28;20254;-76
2021/01/10 12:50:43;;;;;;;7.65;4.35;;;3.00;99.90;;;;;;5015916;28;20204;-84
2021/01/10 12:53:11;;;;;;;10.77;7.47;;;2.90;99.90;;;;;;5016066;28;20268;-84